createdAt,value
2022-12-04T00:01:14.055Z,37.22
2022-12-04T00:03:42.798Z,37.63
2022-12-04T00:06:13.753Z,36.17
2022-12-04T00:08:41.905Z,35.42
2022-12-04T00:11:13.682Z,35.17
2022-12-04T00:13:42.353Z,46.75
2022-12-04T00:16:14.729Z,37.60
2022-12-04T00:18:43.080Z,36.42
2022-12-04T00:21:13.321Z,40.20
2022-12-04T00:23:42.312Z,40.00
2022-12-04T00:26:13.169Z,36.28
2022-12-04T00:28:41.695Z,36.72
2022-12-04T00:31:11.338Z,40.83
2022-12-04T00:33:39.919Z,37.85
2022-12-04T00:36:10.285Z,37.95
2022-12-04T00:38:39.045Z,37.45
2022-12-04T00:41:09.369Z,34.33
2022-12-04T00:43:38.736Z,38.35
2022-12-04T00:46:07.106Z,37.97
2022-12-04T00:48:35.095Z,41.40
2022-12-04T00:51:04.417Z,41.33
2022-12-04T00:53:32.617Z,38.30
2022-12-04T00:56:04.071Z,39.08
2022-12-04T00:58:32.396Z,38.63
2022-12-04T01:01:07.285Z,32.70
2022-12-04T01:03:35.947Z,40.38
2022-12-04T01:06:04.898Z,38.92
2022-12-04T01:08:34.277Z,39.72
2022-12-04T01:11:06.992Z,36.45
2022-12-04T01:13:34.941Z,37.45
2022-12-04T01:16:05.090Z,37.65
2022-12-04T01:18:33.079Z,39.92
2022-12-04T01:21:01.195Z,39.60
2022-12-04T01:23:29.161Z,40.20
2022-12-04T01:25:59.220Z,35.75
2022-12-04T01:28:27.537Z,35.55
2022-12-04T01:31:03.618Z,39.90
2022-12-04T01:33:34.326Z,37.97
2022-12-04T01:36:03.850Z,39.28
2022-12-04T01:38:31.924Z,35.60
2022-12-04T01:41:00.097Z,35.70
2022-12-04T01:43:30.557Z,36.55
2022-12-04T01:45:59.553Z,35.17
2022-12-04T01:48:31.848Z,35.95
2022-12-04T01:51:07.108Z,39.88
2022-12-04T01:53:39.137Z,41.33
2022-12-04T01:56:08.195Z,38.70
2022-12-04T01:58:42.350Z,40.10
2022-12-04T02:01:10.618Z,42.58
2022-12-04T02:03:39.471Z,35.42
2022-12-04T02:06:09.009Z,37.72
2022-12-04T02:08:38.730Z,38.30
2022-12-04T02:11:14.650Z,37.03
2022-12-04T02:13:50.548Z,36.70
2022-12-04T02:16:26.035Z,35.30
2022-12-04T02:19:00.130Z,34.22
2022-12-04T02:21:34.122Z,37.85
2022-12-04T02:24:29.832Z,30.30
2022-12-04T02:27:03.157Z,32.33
2022-12-04T02:29:40.252Z,32.15
2022-12-04T02:32:15.831Z,30.73
2022-12-04T02:34:51.720Z,26.63
2022-12-04T02:37:26.374Z,25.23
2022-12-04T02:40:00.629Z,28.13
2022-12-04T02:42:34.952Z,30.80
2022-12-04T02:45:09.439Z,26.75
2022-12-04T02:47:39.045Z,31.63
2022-12-04T02:50:11.209Z,34.13
2022-12-04T02:52:45.247Z,33.65
2022-12-04T02:55:20.173Z,36.42
2022-12-04T02:57:51.914Z,36.55
2022-12-04T03:00:22.971Z,38.38
2022-12-04T03:02:57.961Z,36.47
2022-12-04T03:05:30.553Z,38.95
2022-12-04T03:08:02.624Z,35.47
2022-12-04T03:10:35.107Z,34.63
2022-12-04T03:13:07.324Z,35.78
2022-12-04T03:15:43.510Z,34.30
2022-12-04T03:18:16.434Z,33.65
2022-12-04T03:20:47.737Z,36.47
2022-12-04T03:23:21.722Z,33.97
2022-12-04T03:25:57.385Z,37.92
2022-12-04T03:28:32.635Z,36.65
2022-12-04T03:31:07.842Z,33.97
2022-12-04T03:33:42.898Z,32.38
2022-12-04T03:36:15.863Z,33.88
2022-12-04T03:38:48.373Z,31.67
2022-12-04T03:41:25.589Z,29.60
2022-12-04T03:44:00.192Z,31.30
2022-12-04T03:46:33.634Z,33.95
2022-12-04T03:49:11.917Z,31.27
2022-12-04T03:51:45.952Z,33.83
2022-12-04T03:54:18.353Z,32.53
2022-12-04T03:56:50.533Z,32.10
2022-12-04T03:59:23.402Z,31.20
2022-12-04T04:01:53.344Z,31.30
2022-12-04T04:04:27.020Z,31.83
2022-12-04T04:07:00.439Z,33.42
2022-12-04T04:09:33.323Z,30.40
2022-12-04T04:12:07.750Z,31.83
2022-12-04T04:14:58.127Z,34.28
2022-12-04T04:17:49.077Z,32.65
2022-12-04T04:20:39.575Z,31.70
2022-12-04T04:23:31.412Z,32.15
2022-12-04T04:26:01.875Z,28.35
2022-12-04T04:28:31.915Z,31.58
2022-12-04T04:31:07.216Z,29.55
2022-12-04T04:33:45.968Z,33.67
2022-12-04T04:36:20.624Z,34.17
2022-12-04T04:38:58.956Z,30.70
2022-12-04T04:41:34.288Z,31.92
2022-12-04T04:44:13.172Z,30.27
2022-12-04T04:46:44.873Z,31.33
2022-12-04T04:49:16.262Z,30.85
2022-12-04T04:51:45.700Z,33.85
2022-12-04T04:54:15.743Z,34.78
2022-12-04T04:56:45.483Z,31.60
2022-12-04T04:59:13.868Z,31.05
2022-12-04T05:01:44.575Z,34.53
2022-12-04T05:04:14.076Z,35.72
2022-12-04T05:06:42.332Z,30.83
2022-12-04T05:09:10.321Z,33.53
2022-12-04T05:11:38.393Z,33.17
2022-12-04T05:14:06.368Z,31.00
2022-12-04T05:16:34.390Z,30.52
2022-12-04T05:19:19.998Z,31.73
2022-12-04T05:21:49.308Z,27.55
2022-12-04T05:24:17.199Z,24.65
2022-12-04T05:26:45.321Z,24.05
2022-12-04T05:29:13.282Z,24.90
2022-12-04T05:31:41.333Z,22.98
2022-12-04T05:34:09.347Z,21.42
2022-12-04T05:36:37.272Z,22.02
2022-12-04T05:39:06.695Z,24.65
2022-12-04T05:41:34.644Z,21.35
2022-12-04T05:44:02.591Z,23.70
2022-12-04T05:46:30.529Z,20.77
2022-12-04T05:48:58.818Z,21.67
2022-12-04T05:51:26.731Z,22.05
2022-12-04T05:53:54.677Z,23.05
2022-12-04T05:56:24.323Z,20.77
2022-12-04T05:58:52.291Z,22.77
2022-12-04T06:01:23.395Z,21.00
2022-12-04T06:03:51.817Z,22.02
2022-12-04T06:06:22.553Z,21.25
2022-12-04T06:08:51.290Z,21.60
2022-12-04T06:11:20.901Z,22.95
2022-12-04T06:13:50.668Z,22.67
2022-12-04T06:16:20.649Z,21.52
2022-12-04T06:18:50.733Z,22.92
2022-12-04T06:21:19.880Z,23.48
2022-12-04T06:23:48.409Z,22.45
2022-12-04T06:26:16.592Z,22.42
2022-12-04T06:28:44.537Z,23.48
2022-12-04T06:31:15.593Z,27.17
2022-12-04T06:33:43.980Z,25.98
2022-12-04T06:36:14.393Z,24.08
2022-12-04T06:38:43.485Z,27.90
2022-12-04T06:41:13.092Z,25.08
2022-12-04T06:43:41.948Z,23.90
2022-12-04T06:46:12.496Z,22.17
2022-12-04T06:48:42.688Z,23.08
2022-12-04T06:51:12.839Z,25.15
2022-12-04T06:53:41.435Z,25.13
2022-12-04T06:56:11.516Z,27.73
2022-12-04T06:58:39.789Z,26.27
2022-12-04T07:01:09.353Z,27.00
2022-12-04T07:03:37.646Z,24.50
2022-12-04T07:06:14.450Z,26.83
2022-12-04T07:08:44.370Z,24.10
2022-12-04T07:11:13.212Z,25.02
2022-12-04T07:13:41.802Z,24.40
2022-12-04T07:16:13.642Z,26.73
2022-12-04T07:18:42.325Z,25.60
2022-12-04T07:21:12.918Z,26.05
2022-12-04T07:23:40.915Z,38.78
2022-12-04T07:26:11.547Z,31.90
2022-12-04T07:28:40.458Z,28.10
2022-12-04T07:31:10.778Z,24.67
2022-12-04T07:33:39.541Z,25.98
2022-12-04T07:36:10.028Z,28.02
2022-12-04T07:38:39.398Z,25.45
2022-12-04T07:41:08.338Z,27.65
2022-12-04T07:43:36.387Z,28.80
2022-12-04T07:46:07.190Z,25.98
2022-12-04T07:48:35.520Z,28.75
2022-12-04T07:51:04.848Z,30.55
2022-12-04T07:53:33.041Z,25.95
2022-12-04T07:56:02.408Z,25.58
2022-12-04T07:58:30.385Z,32.08
2022-12-04T08:01:06.820Z,27.50
2022-12-04T08:03:35.106Z,25.60
2022-12-04T08:06:03.428Z,28.17
2022-12-04T08:08:31.527Z,26.75
2022-12-04T08:10:59.830Z,28.10
2022-12-04T08:13:29.161Z,34.17
2022-12-04T08:15:57.177Z,29.52
2022-12-04T08:18:25.110Z,29.95
2022-12-04T08:20:53.099Z,27.38
2022-12-04T08:23:21.119Z,28.92
2022-12-04T08:25:49.094Z,27.73
2022-12-04T08:28:17.809Z,26.95
2022-12-04T08:30:47.289Z,29.88
2022-12-04T08:33:15.446Z,28.85
2022-12-04T08:35:43.554Z,29.75
2022-12-04T08:38:11.569Z,28.02
2022-12-04T08:40:41.911Z,28.58
2022-12-04T08:43:09.837Z,30.85
2022-12-04T08:45:37.953Z,28.52
2022-12-04T08:48:07.663Z,33.20
2022-12-04T08:50:35.730Z,30.27
2022-12-04T08:53:03.928Z,26.77
2022-12-04T08:55:32.593Z,30.45
2022-12-04T08:58:04.345Z,27.17
2022-12-04T09:00:32.681Z,26.80
2022-12-04T09:03:00.695Z,27.67
2022-12-04T09:05:30.759Z,29.40
2022-12-04T09:07:59.145Z,28.63
2022-12-04T09:10:27.201Z,26.52
2022-12-04T09:12:55.223Z,26.52
2022-12-04T09:15:23.255Z,24.00
2022-12-04T09:17:51.258Z,34.45
2022-12-04T09:20:19.597Z,30.45
2022-12-04T09:23:03.533Z,29.42
2022-12-04T09:25:32.593Z,34.55
2022-12-04T09:28:00.753Z,36.05
2022-12-04T09:30:28.727Z,33.60
2022-12-04T09:32:56.652Z,30.77
2022-12-04T09:35:24.819Z,29.10
2022-12-04T09:37:54.264Z,30.17
2022-12-04T09:40:35.238Z,26.50
2022-12-04T09:43:23.680Z,28.05
2022-12-04T09:45:55.086Z,27.55
2022-12-04T09:48:27.568Z,30.92
2022-12-04T09:50:56.293Z,32.03
2022-12-04T09:53:30.817Z,33.83
2022-12-04T09:56:03.517Z,33.17
2022-12-04T09:58:41.328Z,30.85
2022-12-04T10:01:21.798Z,33.10
2022-12-04T10:03:50.624Z,33.40
2022-12-04T10:06:24.096Z,32.28
2022-12-04T10:09:01.076Z,30.48
2022-12-04T10:11:41.224Z,33.47
2022-12-04T10:14:20.819Z,35.40
2022-12-04T10:17:08.367Z,38.65
2022-12-04T10:19:45.354Z,39.15
2022-12-04T10:22:19.566Z,33.35
2022-12-04T10:24:52.415Z,36.58
2022-12-04T10:27:24.440Z,34.97
2022-12-04T10:29:57.162Z,48.92
2022-12-04T10:32:29.949Z,40.72
2022-12-04T10:35:04.208Z,53.90
2022-12-04T10:37:39.985Z,44.55
2022-12-04T10:40:17.924Z,40.85
2022-12-04T10:42:52.884Z,44.25
2022-12-04T10:45:21.654Z,44.13
2022-12-04T10:47:52.887Z,39.45
2022-12-04T10:50:22.904Z,41.65
2022-12-04T10:52:51.292Z,41.20
2022-12-04T10:55:31.880Z,46.25
2022-12-04T10:58:00.092Z,43.28
2022-12-04T11:00:32.287Z,42.22
2022-12-04T11:03:03.509Z,43.05
2022-12-04T11:05:34.463Z,45.08
2022-12-04T11:08:05.552Z,43.45
2022-12-04T11:10:39.371Z,42.05
2022-12-04T11:13:16.711Z,45.03
2022-12-04T11:15:45.791Z,43.63
2022-12-04T11:18:19.397Z,49.45
2022-12-04T11:20:52.919Z,48.53
2022-12-04T11:23:21.928Z,44.33
2022-12-04T11:25:54.358Z,42.88
2022-12-04T11:28:41.199Z,39.25
2022-12-04T11:31:14.760Z,40.83
2022-12-04T11:33:50.017Z,41.25
2022-12-04T11:36:22.816Z,45.15
2022-12-04T11:38:52.929Z,45.88
2022-12-04T11:41:31.704Z,42.53
2022-12-04T11:44:00.968Z,33.75
2022-12-04T11:46:31.724Z,38.08
2022-12-04T11:49:00.215Z,34.25
2022-12-04T11:51:41.084Z,34.33
2022-12-04T11:54:19.772Z,40.17
2022-12-04T11:56:56.361Z,37.78
2022-12-04T11:59:42.362Z,37.22
2022-12-04T12:02:37.627Z,37.88
2022-12-04T12:05:23.199Z,39.65
2022-12-04T12:08:03.086Z,40.50
2022-12-04T12:10:43.035Z,35.38
2022-12-04T12:13:26.076Z,37.30
2022-12-04T12:16:09.072Z,35.15
2022-12-04T12:18:52.221Z,37.40
2022-12-04T12:21:24.945Z,38.05
2022-12-04T12:24:08.372Z,35.05
2022-12-04T12:26:46.412Z,35.75
2022-12-04T12:29:28.475Z,38.20
2022-12-04T12:32:19.298Z,33.97
2022-12-04T12:34:48.543Z,37.08
2022-12-04T12:37:23.725Z,35.67
2022-12-04T12:39:59.899Z,56.80
2022-12-04T12:42:34.014Z,46.20
2022-12-04T12:45:15.654Z,36.78
2022-12-04T12:47:46.778Z,34.30
2022-12-04T12:50:21.096Z,35.90
2022-12-04T12:52:56.978Z,36.10
2022-12-04T12:55:28.237Z,42.97
2022-12-04T12:58:07.519Z,39.63
2022-12-04T13:00:44.865Z,35.28
2022-12-04T13:03:27.056Z,40.88
2022-12-04T13:06:00.855Z,38.83
2022-12-04T13:08:33.328Z,41.55
2022-12-04T13:11:06.802Z,37.95
2022-12-04T13:13:40.323Z,36.35
2022-12-04T13:16:13.462Z,39.30
2022-12-04T13:18:46.760Z,36.33
2022-12-04T13:21:32.067Z,43.90
2022-12-04T13:24:37.769Z,43.75
2022-12-04T13:27:11.902Z,41.08
2022-12-04T13:29:53.387Z,45.63
2022-12-04T13:32:45.548Z,39.28
2022-12-04T13:35:23.083Z,42.53
2022-12-04T13:38:15.279Z,39.88
2022-12-04T13:40:47.763Z,40.65
2022-12-04T13:43:29.591Z,36.50
2022-12-04T13:46:01.520Z,43.58
2022-12-04T13:48:39.584Z,41.13
2022-12-04T13:51:37.210Z,40.47
2022-12-04T13:54:27.409Z,38.05
2022-12-04T13:57:00.529Z,39.42
2022-12-04T13:59:40.340Z,38.28
2022-12-04T14:02:25.429Z,36.90
2022-12-04T14:04:59.091Z,40.80
2022-12-04T14:07:30.570Z,34.70
2022-12-04T14:10:04.643Z,41.08
2022-12-04T14:12:36.303Z,43.00
2022-12-04T14:15:07.873Z,41.75
2022-12-04T14:17:38.523Z,41.88
2022-12-04T14:20:22.716Z,42.65
2022-12-04T14:22:51.006Z,47.13
2022-12-04T14:25:33.546Z,45.75
2022-12-04T14:28:12.548Z,49.42
2022-12-04T14:30:41.879Z,45.85
2022-12-04T14:33:13.360Z,47.67
2022-12-04T14:35:50.542Z,51.40
2022-12-04T14:38:22.866Z,48.58
2022-12-04T14:40:53.792Z,49.55
2022-12-04T14:43:23.987Z,45.67
2022-12-04T14:45:59.115Z,49.05
2022-12-04T14:48:34.950Z,51.30
2022-12-04T14:51:13.516Z,50.03
2022-12-04T14:53:46.677Z,50.53
2022-12-04T14:56:33.744Z,51.08
2022-12-04T14:59:07.361Z,52.78
2022-12-04T15:01:38.680Z,53.63
2022-12-04T15:04:14.892Z,48.88
2022-12-04T15:06:48.594Z,56.22
2022-12-04T15:09:36.730Z,47.88
2022-12-04T15:12:36.272Z,51.78
2022-12-04T15:15:17.429Z,52.42
2022-12-04T15:17:45.860Z,66.22
2022-12-04T15:20:19.169Z,52.55
2022-12-04T15:22:48.885Z,55.85
2022-12-04T15:25:20.490Z,54.75
2022-12-04T15:27:50.001Z,54.45
2022-12-04T15:30:20.608Z,52.63
2022-12-04T15:32:51.273Z,57.05
2022-12-04T15:35:24.918Z,54.67
2022-12-04T15:37:54.910Z,52.83
2022-12-04T15:40:25.245Z,52.60
2022-12-04T15:42:53.305Z,49.03
2022-12-04T15:45:31.615Z,63.45
2022-12-04T15:47:59.613Z,60.20
2022-12-04T15:50:30.048Z,60.20
2022-12-04T15:53:08.139Z,52.20
2022-12-04T15:55:40.373Z,61.15
2022-12-04T15:58:19.120Z,64.47
2022-12-04T16:00:47.481Z,58.60
2022-12-04T16:03:26.578Z,60.25
2022-12-04T16:06:05.295Z,61.70
2022-12-04T16:08:36.622Z,56.33
2022-12-04T16:11:07.876Z,54.90
2022-12-04T16:13:38.428Z,53.13
2022-12-04T16:16:11.359Z,52.42
2022-12-04T16:18:40.606Z,52.75
2022-12-04T16:21:13.876Z,56.20
2022-12-04T16:23:43.913Z,58.13
2022-12-04T16:26:13.789Z,61.85
2022-12-04T16:28:41.817Z,56.13
2022-12-04T16:31:11.872Z,62.72
2022-12-04T16:33:40.391Z,58.47
2022-12-04T16:36:10.901Z,61.72
2022-12-04T16:38:39.007Z,59.05
2022-12-04T16:41:14.131Z,58.13
2022-12-04T16:43:42.680Z,53.80
2022-12-04T16:46:15.089Z,55.03
2022-12-04T16:48:43.273Z,54.50
2022-12-04T16:51:16.110Z,54.33
2022-12-04T16:53:44.302Z,57.45
2022-12-04T16:56:14.084Z,58.90
2022-12-04T16:58:42.177Z,60.45
2022-12-04T17:01:22.409Z,51.75
2022-12-04T17:03:51.102Z,56.35
2022-12-04T17:06:20.030Z,55.17
2022-12-04T17:08:48.089Z,66.50
2022-12-04T17:11:18.773Z,64.15
2022-12-04T17:13:47.579Z,57.92
2022-12-04T17:16:19.601Z,85.35
2022-12-04T17:18:48.087Z,63.35
2022-12-04T17:21:16.131Z,61.28
2022-12-04T17:23:44.846Z,49.58
2022-12-04T17:26:15.130Z,47.38
2022-12-04T17:28:44.595Z,51.42
2022-12-04T17:31:16.039Z,48.38
2022-12-04T17:33:44.706Z,45.40
2022-12-04T17:36:15.006Z,42.85
2022-12-04T17:38:43.618Z,47.05
2022-12-04T17:41:14.987Z,51.30
2022-12-04T17:43:45.080Z,53.75
2022-12-04T17:46:14.763Z,48.83
2022-12-04T17:48:43.426Z,48.67
2022-12-04T17:51:13.817Z,50.53
2022-12-04T17:53:41.941Z,51.60
2022-12-04T17:56:12.047Z,52.92
2022-12-04T17:58:40.772Z,56.17
2022-12-04T18:01:13.585Z,54.75
2022-12-04T18:03:43.436Z,50.17
2022-12-04T18:06:16.044Z,56.05
2022-12-04T18:08:49.779Z,48.25
2022-12-04T18:11:20.541Z,53.20
2022-12-04T18:13:49.269Z,55.72
2022-12-04T18:16:18.773Z,56.42
2022-12-04T18:18:47.522Z,53.67
2022-12-04T18:21:16.171Z,59.42
2022-12-04T18:23:46.046Z,63.00
2022-12-04T18:26:16.749Z,63.80
2022-12-04T18:28:47.373Z,58.42
2022-12-04T18:31:17.050Z,65.90
2022-12-04T18:33:46.511Z,67.45
2022-12-04T18:36:17.054Z,295.05
2022-12-04T18:38:45.992Z,562.35
2022-12-04T18:41:15.479Z,105.72
2022-12-04T18:43:45.932Z,86.18
2022-12-04T18:46:16.471Z,73.57
2022-12-04T18:48:47.258Z,73.57
2022-12-04T18:51:18.137Z,77.40
2022-12-04T18:53:46.686Z,69.53
2022-12-04T18:56:14.944Z,74.63
2022-12-04T18:58:44.647Z,79.82
2022-12-04T19:01:15.214Z,100.88
2022-12-04T19:03:43.604Z,99.25
2022-12-04T19:06:15.950Z,87.03
2022-12-04T19:08:44.060Z,103.85
2022-12-04T19:11:13.699Z,97.32
2022-12-04T19:13:42.091Z,79.97
2022-12-04T19:16:13.183Z,79.25
2022-12-04T19:18:42.177Z,72.90
2022-12-04T19:21:12.021Z,70.88
2022-12-04T19:23:39.985Z,62.60
2022-12-04T19:26:10.779Z,77.35
2022-12-04T19:28:38.930Z,69.85
2022-12-04T19:31:14.933Z,56.35
2022-12-04T19:33:43.102Z,54.10
2022-12-04T19:36:14.216Z,60.33
2022-12-04T19:38:42.806Z,56.42
2022-12-04T19:41:13.124Z,51.88
2022-12-04T19:43:43.829Z,47.53
2022-12-04T19:46:13.917Z,50.03
2022-12-04T19:48:42.358Z,48.22
2022-12-04T19:51:14.371Z,39.47
2022-12-04T19:53:43.382Z,40.08
2022-12-04T19:56:14.049Z,46.83
2022-12-04T19:58:42.488Z,43.97
2022-12-04T20:01:13.831Z,49.05
2022-12-04T20:03:42.119Z,43.83
2022-12-04T20:06:14.310Z,46.40
2022-12-04T20:08:43.347Z,48.50
2022-12-04T20:11:15.688Z,47.00
2022-12-04T20:13:44.639Z,43.67
2022-12-04T20:16:14.740Z,49.15
2022-12-04T20:18:43.451Z,50.47
2022-12-04T20:21:14.206Z,38.63
2022-12-04T20:23:43.288Z,41.55
2022-12-04T20:26:14.852Z,41.05
2022-12-04T20:28:43.475Z,42.33
2022-12-04T20:31:15.968Z,43.15
2022-12-04T20:33:44.333Z,43.80
2022-12-04T20:36:15.706Z,41.85
2022-12-04T20:38:44.327Z,37.63
2022-12-04T20:41:15.955Z,35.20
2022-12-04T20:43:44.829Z,32.42
2022-12-04T20:46:17.400Z,36.20
2022-12-04T20:48:48.853Z,38.15
2022-12-04T20:51:19.763Z,38.83
2022-12-04T20:53:49.764Z,33.88
2022-12-04T20:56:18.518Z,32.85
2022-12-04T20:58:55.098Z,34.08
2022-12-04T21:01:24.314Z,35.17
2022-12-04T21:03:53.816Z,33.97
2022-12-04T21:06:28.331Z,36.90
2022-12-04T21:09:02.087Z,33.65
2022-12-04T21:11:32.427Z,34.88
2022-12-04T21:14:22.469Z,40.95
2022-12-04T21:16:50.876Z,41.08
2022-12-04T21:19:21.374Z,32.17
2022-12-04T21:21:54.476Z,34.28
2022-12-04T21:24:24.275Z,29.90
2022-12-04T21:26:52.243Z,30.95
2022-12-04T21:29:20.901Z,30.77
2022-12-04T21:31:49.300Z,36.70
2022-12-04T21:34:18.594Z,37.25
2022-12-04T21:36:47.316Z,27.27
2022-12-04T21:39:17.202Z,32.10
2022-12-04T21:42:02.923Z,25.88
2022-12-04T21:44:31.099Z,25.40
2022-12-04T21:46:59.404Z,24.70
2022-12-04T21:49:27.811Z,21.45
2022-12-04T21:51:57.633Z,25.90
2022-12-04T21:54:28.052Z,24.88
2022-12-04T21:56:56.556Z,25.95
2022-12-04T21:59:25.322Z,23.65
2022-12-04T22:01:54.316Z,22.25
2022-12-04T22:04:22.935Z,22.90
2022-12-04T22:06:51.175Z,20.98
2022-12-04T22:09:19.546Z,23.08
2022-12-04T22:11:49.115Z,22.65
2022-12-04T22:14:17.271Z,23.23
2022-12-04T22:16:45.403Z,22.33
2022-12-04T22:19:14.165Z,22.17
2022-12-04T22:21:42.122Z,24.63
2022-12-04T22:24:11.461Z,23.75
2022-12-04T22:26:40.229Z,22.67
2022-12-04T22:29:48.073Z,26.90
2022-12-04T22:31:57.897Z,20.60
2022-12-04T22:34:26.031Z,22.13
2022-12-04T22:36:54.205Z,21.50
2022-12-04T22:39:22.123Z,24.95
2022-12-04T22:41:50.121Z,21.92
2022-12-04T22:44:19.567Z,22.90
2022-12-04T22:46:47.839Z,24.17
2022-12-04T22:49:16.325Z,25.60
2022-12-04T22:51:44.342Z,22.50
2022-12-04T22:54:14.715Z,24.20
2022-12-04T22:56:43.579Z,25.00
2022-12-04T22:59:11.695Z,25.38
2022-12-04T23:01:43.239Z,23.65
2022-12-04T23:04:11.271Z,30.58
2022-12-04T23:06:39.499Z,29.60
2022-12-04T23:09:10.012Z,23.48
2022-12-04T23:11:38.652Z,26.45
2022-12-04T23:14:09.121Z,23.30
2022-12-04T23:16:39.041Z,23.80
2022-12-04T23:19:10.098Z,23.48
2022-12-04T23:21:38.060Z,23.50
2022-12-04T23:24:06.913Z,24.98
2022-12-04T23:26:37.363Z,22.73
2022-12-04T23:29:23.412Z,22.83
2022-12-04T23:31:54.425Z,24.25
2022-12-04T23:34:23.892Z,25.58
2022-12-04T23:36:51.865Z,27.58
2022-12-04T23:39:19.952Z,24.55
2022-12-04T23:41:47.924Z,26.08
2022-12-04T23:44:15.858Z,29.38
2022-12-04T23:46:44.041Z,28.85
2022-12-04T23:49:12.068Z,30.30
2022-12-04T23:51:41.382Z,27.23
2022-12-04T23:54:09.322Z,26.33
2022-12-04T23:56:37.330Z,30.13
2022-12-04T23:59:05.305Z,27.98
